Time;durP1;ratioP1;P1;durP2;ratioP2;P2;SDS_P1;SDS_P2;PMS_P1;PMS_P2;Temp;Humidity;BMP_temperature;BMP_pressure;BME280_temperature;BME280_humidity;BME280_pressure;Samples;Min_cycle;Max_cycle;Signal;HPM_P1;HPM_P2
2022/03/21 00:01:57;;;;;;;64.07;36.92;;;;;;;0.32;83.28;102783.41;10493589;28;20113;-76
2022/03/21 00:06:57;;;;;;;75.03;42.03;;;;;;;0.13;83.71;102776.06;10458784;28;20036;-76
2022/03/21 00:11:58;;;;;;;59.80;38.47;;;;;;;-0.11;83.99;102781.75;10458884;28;20052;-77
2022/03/21 00:16:59;;;;;;;59.83;38.38;;;;;;;-0.17;84.20;102787.06;10497994;28;20431;-77
2022/03/21 00:22:01;;;;;;;62.57;36.30;;;;;;;-0.16;84.42;102797.56;10454796;28;20399;-77
2022/03/21 00:27:02;;;;;;;50.22;33.65;;;;;;;-0.25;85.53;102809.31;10482677;28;20038;-77
2022/03/21 00:32:05;;;;;;;57.60;37.17;;;;;;;-0.18;85.44;102816.09;10465945;28;20020;-77
2022/03/21 00:37:07;;;;;;;64.60;39.47;;;;;;;-0.22;86.17;102808.72;10469325;28;20032;-77
2022/03/21 00:42:10;;;;;;;59.03;36.90;;;;;;;-0.26;86.02;102807.47;10482431;28;20114;-76
2022/03/21 00:47:11;;;;;;;56.88;36.15;;;;;;;-0.28;86.29;102813.13;10450852;28;20124;-77
2022/03/21 00:52:11;;;;;;;68.28;36.40;;;;;;;-0.38;85.67;102814.56;10483873;28;20058;-76
2022/03/21 00:57:12;;;;;;;60.70;38.30;;;;;;;-0.48;85.99;102815.13;10500807;28;20510;-76
2022/03/21 01:02:12;;;;;;;56.80;37.42;;;;;;;-0.49;86.65;102815.84;10482653;28;20459;-77
2022/03/21 01:07:13;;;;;;;56.20;33.97;;;;;;;-0.53;86.88;102822.97;10482323;28;20078;-77
2022/03/21 01:12:14;;;;;;;60.55;35.85;;;;;;;-0.60;87.67;102819.66;10499331;28;20523;-77
2022/03/21 01:17:15;;;;;;;55.05;34.75;;;;;;;-0.66;87.01;102811.16;10499572;28;20201;-77
2022/03/21 01:22:15;;;;;;;55.60;38.28;;;;;;;-0.71;88.23;102826.78;10498784;28;20411;-77
2022/03/21 01:27:16;;;;;;;61.95;37.83;;;;;;;-0.95;87.41;102823.88;10464673;28;20081;-77
2022/03/21 01:32:17;;;;;;;58.33;38.25;;;;;;;-0.99;88.37;102831.94;10418496;28;20075;-75
2022/03/21 01:37:17;;;;;;;60.92;35.60;;;;;;;-1.02;88.23;102828.97;10497615;28;20098;-77
2022/03/21 01:42:17;;;;;;;60.35;36.10;;;;;;;-1.00;88.61;102835.25;10498405;28;20051;-77
2022/03/21 01:47:18;;;;;;;57.42;36.90;;;;;;;-1.04;88.23;102827.88;10440653;28;20049;-77
2022/03/21 01:52:20;;;;;;;60.95;41.03;;;;;;;-1.25;88.50;102832.13;10455572;28;20140;-77
2022/03/21 01:57:21;;;;;;;53.17;35.25;;;;;;;-1.30;88.63;102842.56;10439612;28;20033;-76
2022/03/21 02:02:21;;;;;;;57.47;38.35;;;;;;;-1.43;88.34;102834.94;10454801;28;20175;-76
2022/03/21 02:07:23;;;;;;;52.88;33.30;;;;;;;-1.46;88.51;102829.41;10453443;28;20499;-76
2022/03/21 02:12:23;;;;;;;55.70;34.60;;;;;;;-1.36;89.20;102828.22;10420351;28;20040;-77
2022/03/21 02:17:24;;;;;;;53.42;35.70;;;;;;;-1.44;89.05;102827.97;10455690;28;20080;-77
2022/03/21 02:22:49;;;;;;;58.40;39.45;;;;;;;-1.49;89.34;102824.81;10452320;28;20037;-77
2022/03/21 02:27:49;;;;;;;57.78;35.65;;;;;;;-1.45;89.93;102813.28;10455587;28;20033;-76
2022/03/21 02:32:50;;;;;;;54.25;36.10;;;;;;;-1.32;89.82;102826.94;10434838;28;20041;-76
2022/03/21 02:37:51;;;;;;;55.35;35.95;;;;;;;-1.39;90.32;102829.47;10427523;28;20431;-77
2022/03/21 02:42:51;;;;;;;61.72;35.72;;;;;;;-1.28;90.05;102815.44;10437463;28;20120;-76
2022/03/21 02:47:52;;;;;;;71.57;41.17;;;;;;;-1.04;90.50;102818.53;10402128;28;20492;-76
2022/03/21 02:52:52;;;;;;;56.67;36.67;;;;;;;-0.77;90.65;102812.44;10380718;28;20041;-77
2022/03/21 02:57:53;;;;;;;64.68;40.10;;;;;;;-0.59;90.91;102818.00;10395794;28;20477;-76
2022/03/21 03:02:53;;;;;;;61.83;36.28;;;;;;;-0.48;91.36;102814.19;10385653;28;20078;-77
2022/03/21 03:07:54;;;;;;;55.58;34.63;;;;;;;-0.41;91.35;102811.63;10400937;28;20484;-77
2022/03/21 03:12:54;;;;;;;55.78;34.00;;;;;;;-0.32;90.92;102817.91;10395623;28;20053;-77
2022/03/21 03:17:55;;;;;;;59.63;35.97;;;;;;;-0.24;91.12;102830.78;10411278;28;20107;-77
2022/03/21 03:22:56;;;;;;;51.70;32.20;;;;;;;-0.04;91.71;102820.38;10394755;28;20465;-77
2022/03/21 03:27:57;;;;;;;50.30;31.42;;;;;;;0.08;91.49;102829.59;10408024;28;20092;-76
2022/03/21 03:32:58;;;;;;;56.53;32.80;;;;;;;0.11;90.47;102829.97;10396464;28;20135;-76
2022/03/21 03:37:58;;;;;;;56.90;36.13;;;;;;;0.12;90.64;102836.94;10393904;28;20053;-77
2022/03/21 03:42:59;;;;;;;51.65;32.13;;;;;;;0.16;90.29;102843.38;10410879;28;20481;-76
2022/03/21 03:48:01;;;;;;;49.63;32.30;;;;;;;0.21;90.46;102846.53;10482288;28;20045;-76
2022/03/21 03:53:02;;;;;;;55.97;32.25;;;;;;;0.40;90.85;102839.34;10501222;28;20028;-76
2022/03/21 03:58:02;;;;;;;53.25;32.25;;;;;;;0.54;90.84;102841.03;10467839;28;20461;-76
2022/03/21 04:08:22;;;;;;;45.92;28.85;;;;;;;0.41;89.86;102838.63;10474186;28;20044;-77
2022/03/21 04:13:22;;;;;;;48.03;31.38;;;;;;;0.40;90.61;102842.88;10477993;28;20021;-77
2022/03/21 04:18:23;;;;;;;42.85;27.33;;;;;;;0.48;90.27;102841.19;10501494;28;20479;-76
2022/03/21 04:23:23;;;;;;;37.58;24.58;;;;;;;0.49;91.03;102840.44;10484243;28;20063;-77
2022/03/21 04:28:24;;;;;;;51.97;28.35;;;;;;;0.45;90.75;102834.75;10459230;28;20048;-76
2022/03/21 04:33:24;;;;;;;42.40;26.95;;;;;;;0.28;89.89;102836.22;10466431;28;20036;-77
2022/03/21 04:38:25;;;;;;;46.88;28.33;;;;;;;-0.02;89.85;102831.78;10495512;28;20035;-77
2022/03/21 04:43:25;;;;;;;42.20;24.92;;;;;;;-0.14;90.55;102836.34;10483586;28;20113;-77
2022/03/21 04:48:26;;;;;;;47.13;29.33;;;;;;;-0.28;89.82;102836.28;10497292;28;20579;-77
2022/03/21 04:53:26;;;;;;;47.53;31.88;;;;;;;-0.50;90.12;102852.59;10479266;28;20031;-77
2022/03/21 04:58:27;;;;;;;50.22;32.03;;;;;;;-0.65;90.38;102859.31;10462721;28;20033;-75
2022/03/21 05:03:27;;;;;;;51.15;28.15;;;;;;;-0.70;90.54;102852.66;10477590;28;20063;-75
2022/03/21 05:08:28;;;;;;;41.63;28.38;;;;;;;-0.77;90.75;102866.44;10478857;28;20055;-75
2022/03/21 05:13:29;;;;;;;40.70;28.10;;;;;;;-0.80;90.52;102859.97;10458861;28;20082;-78
2022/03/21 05:18:31;;;;;;;55.20;28.05;;;;;;;-1.04;90.08;102871.56;10455417;28;20369;-77
2022/03/21 05:39:33;;;;;;;40.30;24.58;;;;;;;-1.17;91.19;102860.47;10460647;28;20388;-74
2022/03/21 05:44:34;;;;;;;44.70;24.77;;;;;;;-1.21;91.73;102854.94;10428697;28;1216186;-77
2022/03/21 05:49:34;;;;;;;47.03;27.60;;;;;;;-1.29;90.96;102859.84;10494863;28;20029;-77
2022/03/21 05:54:35;;;;;;;39.83;26.10;;;;;;;-1.29;91.58;102865.88;10497459;28;20269;-74
2022/03/21 06:04:54;;;;;;;44.80;26.05;;;;;;;-1.02;92.23;102874.34;10484739;28;20037;-75
2022/03/21 06:09:55;;;;;;;45.97;26.90;;;;;;;-0.88;92.47;102871.88;10494962;28;20080;-77
2022/03/21 06:14:56;;;;;;;51.22;26.88;;;;;;;-0.68;93.03;102871.78;10494858;28;20048;-77
2022/03/21 06:19:56;;;;;;;44.63;28.10;;;;;;;-0.34;93.21;102881.13;10452030;28;20032;-77
2022/03/21 06:24:57;;;;;;;40.90;24.35;;;;;;;0.52;93.28;102884.63;10474244;28;20074;-77
2022/03/21 06:29:57;;;;;;;41.83;23.73;;;;;;;1.15;93.08;102886.06;10477140;28;20564;-78
2022/03/21 06:34:58;;;;;;;27.15;16.83;;;;;;;1.17;91.07;102897.47;10477447;28;20033;-76
2022/03/21 06:39:58;;;;;;;30.27;20.92;;;;;;;2.05;90.33;102904.16;10457849;28;20120;-78
2022/03/21 06:44:59;;;;;;;29.90;18.90;;;;;;;3.43;83.77;102897.81;10445284;28;20040;-80
2022/03/21 06:50:00;;;;;;;28.65;19.05;;;;;;;4.77;77.40;102898.91;10479632;28;20086;-78
2022/03/21 06:55:00;;;;;;;26.92;16.90;;;;;;;5.88;72.56;102896.22;10488821;28;20054;-78
2022/03/21 07:00:02;;;;;;;23.58;14.43;;;;;;;7.41;64.59;102899.53;10459934;28;20078;-80
2022/03/21 07:05:03;;;;;;;49.00;24.02;;;;;;;8.48;60.88;102901.31;10496592;28;20404;-75
2022/03/21 07:10:08;;;;;;;28.25;13.35;;;;;;;9.38;59.72;102896.03;10478437;28;20078;-74
2022/03/21 07:15:12;;;;;;;24.38;12.15;;;;;;;10.38;57.38;102904.19;10493458;28;20070;-78
2022/03/21 07:20:13;;;;;;;18.88;13.75;;;;;;;11.31;54.98;102903.66;10459965;28;20546;-78
2022/03/21 07:25:13;;;;;;;21.00;11.63;;;;;;;12.24;51.85;102907.09;10460035;28;20033;-78
2022/03/21 07:30:16;;;;;;;24.48;12.43;;;;;;;12.76;52.80;102905.63;10495982;28;20040;-78
2022/03/21 07:35:17;;;;;;;20.23;12.00;;;;;;;13.36;51.05;102903.63;10444523;28;20029;-79
2022/03/21 07:40:18;;;;;;;19.10;12.30;;;;;;;14.29;50.32;102901.00;10493608;28;20043;-79
2022/03/21 07:50:41;;;;;;;23.85;12.35;;;;;;;16.07;43.35;102897.75;10495659;28;20036;-79
2022/03/21 07:55:42;;;;;;;18.95;12.50;;;;;;;16.29;44.52;102891.03;10475712;28;20024;-79
2022/03/21 08:00:43;;;;;;;17.55;10.93;;;;;;;16.99;44.45;102887.84;10461566;28;20048;-79
2022/03/21 08:05:44;;;;;;;19.10;11.40;;;;;;;18.02;38.40;102880.75;10474038;28;20495;-79
2022/03/21 08:10:44;;;;;;;20.48;12.00;;;;;;;17.23;41.85;102884.69;10460759;28;20052;-80
2022/03/21 08:15:48;;;;;;;20.67;12.82;;;;;;;17.35;40.00;102894.09;10492646;28;20067;-77
2022/03/21 08:20:48;;;;;;;25.83;13.35;;;;;;;17.57;39.28;102899.66;10495408;28;20029;-78
2022/03/21 08:25:49;;;;;;;21.15;11.93;;;;;;;17.11;39.38;102905.19;10475028;28;20064;-77
2022/03/21 08:30:50;;;;;;;20.27;14.15;;;;;;;14.74;44.38;102911.78;10477388;28;20032;-77
2022/03/21 08:35:50;;;;;;;28.40;13.20;;;;;;;13.28;48.55;102912.72;10495537;28;20033;-77
2022/03/21 08:40:51;;;;;;;22.90;14.25;;;;;;;12.63;49.20;102910.78;10501680;28;20094;-78
2022/03/21 08:45:51;;;;;;;31.13;14.15;;;;;;;12.32;50.57;102913.81;10482730;28;20181;-77
2022/03/21 08:50:52;;;;;;;30.45;16.20;;;;;;;12.35;51.01;102903.53;10467512;28;20033;-78
2022/03/21 08:55:53;;;;;;;22.48;14.05;;;;;;;12.70;50.43;102904.25;10500583;28;20063;-78
2022/03/21 09:00:53;;;;;;;23.80;15.85;;;;;;;14.89;46.01;102898.66;10500813;28;20449;-78
2022/03/21 09:05:54;;;;;;;27.88;15.25;;;;;;;16.52;41.79;102907.28;10465171;28;20040;-77
2022/03/21 09:10:55;;;;;;;20.63;14.50;;;;;;;17.38;42.68;102892.53;10465770;28;20060;-77
2022/03/21 09:15:55;;;;;;;29.75;16.10;;;;;;;18.29;40.15;102888.22;10481228;28;20045;-77
2022/03/21 09:20:56;;;;;;;24.02;16.52;;;;;;;19.29;36.64;102884.78;10499669;28;20476;-78
2022/03/21 09:25:56;;;;;;;30.60;16.80;;;;;;;20.20;34.57;102887.69;10498787;28;20056;-77
2022/03/21 09:30:57;;;;;;;27.30;14.40;;;;;;;21.51;33.88;102882.75;10482216;28;20056;-78
2022/03/21 09:35:58;;;;;;;29.03;15.67;;;;;;;21.32;33.18;102875.91;10464464;28;20480;-78
2022/03/21 09:40:59;;;;;;;23.75;16.58;;;;;;;20.81;33.70;102880.31;10498530;28;20481;-77
2022/03/21 09:46:00;;;;;;;30.38;15.05;;;;;;;20.46;33.20;102878.06;10479839;28;20060;-77
2022/03/21 09:51:01;;;;;;;24.30;16.97;;;;;;;21.39;32.96;102873.50;10480456;28;20449;-78
2022/03/21 09:56:03;;;;;;;21.85;14.35;;;;;;;22.13;32.41;102872.41;10478603;28;20028;-78
2022/03/21 10:01:03;;;;;;;22.98;16.05;;;;;;;23.11;29.57;102864.59;10479460;28;20392;-80
2022/03/21 10:06:34;;;;;;;23.63;16.60;;;;;;;22.41;30.73;102864.34;10496356;28;20119;-78
2022/03/21 10:11:35;;;;;;;22.38;16.50;;;;;;;22.15;33.06;102865.38;10479758;28;20427;-78
2022/03/21 10:16:35;;;;;;;21.90;14.27;;;;;;;21.87;31.78;102866.22;10479716;28;20043;-78
2022/03/21 10:21:36;;;;;;;29.87;17.63;;;;;;;22.06;32.75;102859.75;10462382;28;20059;-78
2022/03/21 10:26:44;;;;;;;24.43;15.90;;;;;;;22.07;31.23;102864.22;10480351;28;20074;-78
2022/03/21 10:31:47;;;;;;;27.55;16.95;;;;;;;23.08;31.28;102867.16;10496135;28;20374;-78
2022/03/21 10:36:59;;;;;;;26.08;17.02;;;;;;;24.28;28.48;102852.34;10445695;28;20025;-78
2022/03/21 10:42:02;;;;;;;20.25;14.73;;;;;;;24.18;29.61;102856.59;10497094;28;20032;-78
2022/03/21 10:47:04;;;;;;;27.52;17.40;;;;;;;23.95;29.89;102858.69;10478555;28;20072;-78
2022/03/21 10:52:06;;;;;;;26.02;16.60;;;;;;;23.64;28.59;102847.28;10496865;28;20028;-80
2022/03/21 10:57:07;;;;;;;;;;;;;;;23.71;32.49;102851.00;10462319;28;20028;-79
2022/03/21 11:02:17;;;;;;;20.90;14.90;;;;;;;24.25;29.96;102846.94;10477212;28;19912;-79
2022/03/21 11:07:18;;;;;;;22.80;15.35;;;;;;;24.82;28.69;102836.53;10477379;28;20032;-78
2022/03/21 11:12:18;;;;;;;20.50;14.43;;;;;;;25.91;28.55;102841.06;10476781;28;20059;-77
2022/03/21 11:17:19;;;;;;;25.33;15.13;;;;;;;25.51;30.26;102833.31;10479183;28;20173;-79
2022/03/21 11:22:20;;;;;;;19.40;14.48;;;;;;;25.11;28.93;102830.81;10459187;28;20041;-80
2022/03/21 11:27:31;;;;;;;26.70;14.20;;;;;;;25.39;27.62;102823.25;10495195;28;20068;-81
2022/03/21 11:32:43;;;;;;;19.97;14.30;;;;;;;24.58;28.57;102821.75;10459941;28;20017;-80
2022/03/21 11:37:43;;;;;;;18.30;13.38;;;;;;;24.62;29.26;102822.72;10461441;28;20390;-80
2022/03/21 11:42:44;;;;;;;20.83;14.73;;;;;;;25.66;27.28;102819.25;10458699;28;20064;-80
2022/03/21 11:47:45;;;;;;;28.43;13.77;;;;;;;24.33;29.44;102826.59;10399800;28;20049;-80
2022/03/21 11:53:09;;;;;;;17.03;11.47;;;;;;;25.07;29.57;102815.56;10411684;28;20434;-80
2022/03/21 11:58:22;;;;;;;31.00;18.50;;;;;;;24.75;30.91;102814.09;10411184;28;20426;-80
2022/03/21 12:03:25;;;;;;;17.85;11.95;;;;;;;25.65;28.57;102810.31;10411131;28;20508;-80
2022/03/21 12:08:33;;;;;;;20.83;12.68;;;;;;;25.99;30.71;102803.66;10393259;28;20044;-79
2022/03/21 12:13:47;;;;;;;23.00;15.77;;;;;;;25.53;31.05;102807.44;10396304;28;20045;-78
2022/03/21 12:19:02;;;;;;;18.00;12.45;;;;;;;26.82;26.84;102780.53;10409835;28;20037;-78
2022/03/21 12:24:13;;;;;;;18.35;13.57;;;;;;;27.48;27.18;102795.41;10443256;28;20071;-78
2022/03/21 12:29:32;;;;;;;18.58;11.68;;;;;;;26.38;28.42;102787.19;10417242;28;20033;-78
2022/03/21 12:34:39;;;;;;;19.70;12.82;;;;;;;26.33;27.22;102782.66;10418305;28;20120;-81
2022/03/21 12:39:44;;;;;;;18.85;13.50;;;;;;;25.12;29.51;102787.06;10417983;28;20022;-79
2022/03/21 12:44:45;;;;;;;16.48;14.15;;;;;;;25.45;30.09;102790.34;10439604;28;20541;-80
2022/03/21 12:49:49;;;;;;;21.10;14.13;;;;;;;25.76;29.67;102780.09;10524920;28;20047;-80
2022/03/21 12:54:50;;;;;;;20.30;14.20;;;;;;;25.69;29.04;102781.75;10508150;28;20062;-79
2022/03/21 12:59:50;;;;;;;20.63;16.13;;;;;;;26.00;28.57;102771.47;10490302;28;20031;-80
2022/03/21 13:10:34;;;;;;;18.45;14.38;;;;;;;25.22;29.38;102775.66;10527762;28;20081;-79
2022/03/21 13:15:35;;;;;;;22.00;15.10;;;;;;;25.55;30.71;102769.94;10507595;28;20025;-79
2022/03/21 13:20:46;;;;;;;22.90;14.57;;;;;;;25.69;30.87;102760.31;10465084;28;20119;-78
2022/03/21 13:25:47;;;;;;;19.00;14.07;;;;;;;26.28;29.24;102752.19;10479408;28;21918;-79
2022/03/21 13:30:55;;;;;;;20.23;13.13;;;;;;;26.42;29.30;102747.88;10521572;28;20059;-82
2022/03/21 13:35:58;;;;;;;21.17;14.70;;;;;;;25.41;29.59;102750.94;10495960;28;20044;-80
2022/03/21 13:40:59;;;;;;;18.85;13.25;;;;;;;25.32;30.42;102749.00;10446678;28;20038;-79
2022/03/21 13:46:00;;;;;;;19.10;14.23;;;;;;;25.30;30.37;102749.00;10499926;28;20032;-81
2022/03/21 13:51:04;;;;;;;19.00;13.40;;;;;;;25.56;29.56;102756.56;10464702;28;20040;-80
2022/03/21 13:56:04;;;;;;;18.55;12.45;;;;;;;25.91;29.01;102747.19;10479247;28;20093;-80
2022/03/21 14:01:21;;;;;;;20.63;13.17;;;;;;;26.05;28.92;102747.41;10479484;28;20081;-80
2022/03/21 14:06:21;;;;;;;16.45;13.90;;;;;;;25.90;29.19;102743.63;10479824;28;20041;-80
2022/03/21 14:11:22;;;;;;;15.43;11.20;;;;;;;25.54;28.99;102736.88;10464434;28;20052;-80
2022/03/21 14:16:25;;;;;;;17.07;12.87;;;;;;;25.96;29.29;102724.03;10461307;28;20068;-80
2022/03/21 14:21:27;;;;;;;23.50;13.75;;;;;;;24.87;31.73;102730.41;10479241;28;20036;-79
2022/03/21 14:26:38;;;;;;;19.00;12.52;;;;;;;24.76;30.89;102724.88;10478806;28;20109;-80
2022/03/21 14:31:39;;;;;;;18.38;14.45;;;;;;;21.81;35.00;102732.78;10479987;28;20116;-83
2022/03/21 14:36:39;;;;;;;17.20;12.43;;;;;;;21.68;36.58;102726.19;10459445;28;20035;-82
2022/03/21 14:41:40;;;;;;;14.50;9.87;;;;;;;21.71;34.75;102718.28;10474032;28;20106;-82
2022/03/21 14:46:40;;;;;;;16.40;11.03;;;;;;;23.11;33.15;102720.38;10501657;28;20042;-79
2022/03/21 14:51:41;;;;;;;27.47;13.30;;;;;;;23.35;32.26;102718.31;10537818;28;20490;-79
2022/03/21 14:56:42;;;;;;;18.13;12.10;;;;;;;22.20;34.56;102715.28;10502177;28;20055;-79
2022/03/21 15:01:42;;;;;;;26.53;12.03;;;;;;;22.49;35.15;102716.09;10519703;28;20023;-80
2022/03/21 15:06:43;;;;;;;15.77;13.37;;;;;;;21.94;35.49;102718.97;10519913;28;20476;-81
2022/03/21 15:11:45;;;;;;;18.80;12.87;;;;;;;21.59;35.74;102715.22;10536748;28;20042;-80
2022/03/21 15:16:45;;;;;;;18.30;11.75;;;;;;;21.66;36.22;102707.47;10519976;28;20028;-81
2022/03/21 15:21:48;;;;;;;16.13;12.10;;;;;;;21.52;34.88;102709.69;10520415;28;20072;-81
2022/03/21 15:26:50;;;;;;;16.30;12.57;;;;;;;19.59;38.81;102714.34;10537429;28;20390;-80
2022/03/21 15:31:50;;;;;;;16.55;11.70;;;;;;;18.20;41.90;102705.81;10504314;28;20048;-79
2022/03/21 15:42:11;;;;;;;20.90;11.13;;;;;;;18.20;42.36;102711.13;10514326;28;20032;-80
2022/03/21 15:47:12;;;;;;;19.03;11.13;;;;;;;18.42;42.00;102705.91;10471730;28;20041;-80
2022/03/21 15:52:12;;;;;;;15.48;10.65;;;;;;;18.21;42.01;102706.75;10436657;28;20120;-78
2022/03/21 15:57:13;;;;;;;18.75;11.30;;;;;;;17.98;43.17;102709.22;10419969;28;20069;-78
2022/03/21 16:02:13;;;;;;;17.48;12.73;;;;;;;17.70;43.29;102705.25;10420373;28;20072;-79
2022/03/21 16:07:17;;;;;;;16.75;11.38;;;;;;;17.62;43.67;102706.63;10419400;28;20034;-78
2022/03/21 16:12:17;;;;;;;15.70;10.40;;;;;;;17.27;43.54;102701.44;10419829;28;20033;-79
2022/03/21 16:17:18;;;;;;;15.82;10.15;;;;;;;17.11;44.52;102712.09;10419470;28;20109;-78
2022/03/21 16:22:18;;;;;;;15.40;9.52;;;;;;;16.93;44.81;102701.47;10415990;28;20485;-79
2022/03/21 16:27:19;;;;;;;18.38;12.02;;;;;;;16.68;45.51;102703.75;10402994;28;20061;-78
2022/03/21 16:32:19;;;;;;;19.02;11.75;;;;;;;16.41;45.66;102712.03;10399746;28;20436;-78
2022/03/21 16:37:23;;;;;;;20.45;11.63;;;;;;;16.29;46.21;102717.59;10416480;28;20519;-78
2022/03/21 16:42:25;;;;;;;14.65;9.90;;;;;;;16.05;46.83;102711.88;10384794;28;20022;-77
2022/03/21 16:47:25;;;;;;;13.85;11.00;;;;;;;15.78;47.67;102714.78;10416108;28;20041;-79
2022/03/21 16:52:26;;;;;;;16.83;9.38;;;;;;;15.57;48.79;102717.13;10441666;28;20456;-78
2022/03/21 16:57:26;;;;;;;16.92;12.15;;;;;;;15.45;49.17;102721.72;10456700;28;20037;-76
2022/03/21 17:02:27;;;;;;;18.13;11.25;;;;;;;15.27;49.58;102714.56;10442229;28;20099;-77
2022/03/21 17:07:28;;;;;;;18.00;10.35;;;;;;;15.01;50.63;102723.56;10456792;28;20112;-77
2022/03/21 17:12:28;;;;;;;22.65;12.43;;;;;;;14.72;51.25;102725.38;10441222;28;20040;-76
2022/03/21 17:17:29;;;;;;;24.65;11.85;;;;;;;14.41;52.06;102720.84;10425060;28;20040;-76
2022/03/21 17:27:49;;;;;;;15.32;9.68;;;;;;;13.60;54.52;102726.31;10456447;28;20465;-77
2022/03/21 17:32:49;;;;;;;18.67;9.95;;;;;;;13.27;55.59;102721.56;10450302;28;20136;-77
2022/03/21 17:37:52;;;;;;;16.52;10.75;;;;;;;12.83;56.53;102732.63;10458911;28;20064;-78
2022/03/21 17:42:53;;;;;;;40.33;9.60;;;;;;;12.37;58.36;102738.22;10448838;28;20028;-77
2022/03/21 17:47:54;;;;;;;20.90;9.70;;;;;;;12.02;59.22;102748.03;10509547;28;20076;-77
2022/03/21 17:52:55;;;;;;;14.18;9.75;;;;;;;11.80;60.73;102748.16;10479584;28;20044;-78
2022/03/21 17:57:56;;;;;;;17.42;9.25;;;;;;;11.44;61.88;102759.59;10450004;28;20131;-79
2022/03/21 18:02:58;;;;;;;18.40;11.50;;;;;;;10.96;62.97;102756.03;10493248;28;20067;-78
2022/03/21 18:07:59;;;;;;;;;;;;;;;10.68;64.06;102763.44;10517204;28;20039;-78
2022/03/21 18:13:00;;;;;;;20.10;10.27;;;;;;;10.25;64.50;102763.59;10462456;28;19916;-77
2022/03/21 18:18:00;;;;;;;22.65;14.20;;;;;;;10.00;66.70;102772.09;10463044;28;20437;-76
2022/03/21 18:23:01;;;;;;;21.23;14.50;;;;;;;9.73;67.59;102774.28;10495627;28;20020;-77
2022/03/21 18:28:08;;;;;;;22.17;13.23;;;;;;;9.48;67.93;102777.50;10473822;28;20440;-74
2022/03/21 18:33:09;;;;;;;29.33;16.02;;;;;;;9.27;69.17;102776.63;10509782;28;20063;-75
2022/03/21 18:38:10;;;;;;;38.40;15.23;;;;;;;9.02;69.66;102782.41;10477825;28;20119;-75
2022/03/21 18:43:10;;;;;;;28.98;12.85;;;;;;;8.81;70.17;102787.63;10504203;28;20028;-75
2022/03/21 18:48:11;;;;;;;24.85;13.52;;;;;;;8.66;71.32;102787.22;10468315;28;20956;-75
2022/03/21 18:53:11;;;;;;;29.88;14.95;;;;;;;8.57;71.57;102796.88;10461560;28;20145;-76
2022/03/21 18:58:12;;;;;;;30.80;14.57;;;;;;;8.47;72.21;102794.22;10476164;28;20086;-75
2022/03/21 19:03:12;;;;;;;26.52;14.40;;;;;;;8.35;72.91;102802.78;10495133;28;20142;-76
2022/03/21 19:08:13;;;;;;;31.33;13.75;;;;;;;8.32;73.59;102809.41;10477174;28;20602;-76
2022/03/21 19:13:17;;;;;;;22.60;13.57;;;;;;;8.29;73.44;102807.47;10478705;28;20059;-76
2022/03/21 19:18:17;;;;;;;24.17;14.95;;;;;;;8.21;73.93;102806.78;10460847;28;20070;-76
2022/03/21 19:23:18;;;;;;;25.60;16.20;;;;;;;8.19;74.44;102810.94;10476768;28;20035;-76
2022/03/21 19:28:18;;;;;;;37.47;18.33;;;;;;;8.20;74.08;102810.16;10460145;28;20051;-77
2022/03/21 19:33:19;;;;;;;23.50;16.55;;;;;;;8.12;74.34;102812.91;10494026;28;20372;-80
2022/03/21 19:38:21;;;;;;;29.83;16.85;;;;;;;8.04;74.44;102814.81;10492900;28;20056;-77
2022/03/21 19:43:23;;;;;;;30.77;17.02;;;;;;;7.98;74.12;102827.28;10496477;28;20036;-77
2022/03/21 19:48:24;;;;;;;26.52;17.08;;;;;;;7.83;74.60;102824.25;10493668;28;20048;-78
2022/03/21 19:53:24;;;;;;;28.58;15.73;;;;;;;7.69;74.91;102821.28;10475405;28;20028;-76
2022/03/21 19:58:25;;;;;;;21.80;12.23;;;;;;;7.53;75.68;102832.00;10476267;28;20480;-76
2022/03/21 20:03:25;;;;;;;26.33;16.80;;;;;;;7.39;76.12;102832.41;10473743;28;20504;-76
2022/03/21 20:08:26;;;;;;;38.35;16.67;;;;;;;7.32;76.88;102837.06;10493470;28;20048;-76
2022/03/21 20:13:26;;;;;;;36.60;23.13;;;;;;;7.34;77.49;102832.91;10474893;28;20113;-77
2022/03/21 20:18:27;;;;;;;31.10;21.17;;;;;;;7.29;77.41;102842.00;10477665;28;20027;-77
2022/03/21 20:23:28;;;;;;;30.70;20.50;;;;;;;7.34;77.97;102838.13;10476175;28;20024;-77
2022/03/21 20:28:28;;;;;;;44.85;23.52;;;;;;;7.25;76.70;102841.56;10458503;28;20040;-77
2022/03/21 20:33:29;;;;;;;33.75;22.30;;;;;;;7.07;77.45;102835.56;10479085;28;20086;-77
2022/03/21 20:38:29;;;;;;;55.47;29.50;;;;;;;6.94;78.59;102836.13;10498144;28;20032;-76
2022/03/21 20:43:31;;;;;;;30.92;22.35;;;;;;;6.76;78.60;102831.91;10502922;28;20036;-76
2022/03/21 20:48:31;;;;;;;37.97;21.93;;;;;;;6.66;79.11;102837.00;10502300;28;20045;-75
2022/03/21 20:53:32;;;;;;;29.25;21.90;;;;;;;6.62;79.96;102840.09;10500753;28;20033;-75
2022/03/21 20:58:32;;;;;;;32.95;22.00;;;;;;;6.50;79.73;102832.03;10499006;28;20048;-77
2022/03/21 21:03:34;;;;;;;31.92;22.00;;;;;;;6.35;80.22;102839.25;10501620;28;20044;-76
2022/03/21 21:08:34;;;;;;;41.95;20.77;;;;;;;6.31;81.03;102842.34;10483992;28;20460;-76
2022/03/21 21:13:35;;;;;;;31.80;18.50;;;;;;;6.25;80.58;102841.75;10499810;28;20036;-76
2022/03/21 21:18:36;;;;;;;34.28;20.02;;;;;;;6.20;80.81;102849.13;10499777;28;20240;-75
2022/03/21 21:23:36;;;;;;;35.83;19.42;;;;;;;6.20;81.48;102849.13;10496950;28;20507;-77
2022/03/21 21:28:37;;;;;;;29.60;18.77;;;;;;;6.06;80.97;102847.75;10473564;28;20029;-76
2022/03/21 21:33:37;;;;;;;35.30;18.42;;;;;;;5.94;82.19;102847.44;10456632;28;20067;-75
2022/03/21 21:38:38;;;;;;;38.78;19.75;;;;;;;5.86;81.94;102862.28;10470654;28;20111;-75
2022/03/21 21:43:38;;;;;;;33.75;19.10;;;;;;;5.73;82.04;102862.75;10499111;28;20561;-75
2022/03/21 21:48:44;;;;;;;31.38;20.55;;;;;;;5.61;82.84;102860.59;10481997;28;20126;-75
2022/03/21 21:53:45;;;;;;;29.33;18.88;;;;;;;5.53;82.81;102854.66;10499574;28;20051;-75
2022/03/21 21:58:45;;;;;;;29.48;21.95;;;;;;;5.47;83.59;102859.25;10463190;28;20024;-75
2022/03/21 22:03:46;;;;;;;42.45;24.95;;;;;;;5.39;83.09;102858.44;10498781;28;20067;-75
2022/03/21 22:08:46;;;;;;;41.65;26.95;;;;;;;5.15;83.73;102855.22;10497400;28;20436;-75
2022/03/21 22:13:47;;;;;;;42.53;26.08;;;;;;;5.00;83.38;102868.47;10498168;28;20068;-75
2022/03/21 22:18:48;;;;;;;39.67;24.02;;;;;;;5.02;83.96;102871.22;10498185;28;20032;-76
2022/03/21 22:23:49;;;;;;;39.97;27.80;;;;;;;4.93;84.52;102866.00;10497540;28;20032;-75
2022/03/21 22:28:49;;;;;;;37.53;24.17;;;;;;;4.81;84.78;102869.91;10478298;28;20048;-75
2022/03/21 22:33:50;;;;;;;38.63;23.15;;;;;;;4.76;84.76;102871.13;10496786;28;20878;-75
2022/03/21 22:38:50;;;;;;;40.42;26.20;;;;;;;4.68;85.02;102875.53;10496501;28;20052;-75
2022/03/21 22:49:10;;;;;;;35.00;22.67;;;;;;;4.66;85.36;102879.66;10496068;28;20477;-75
2022/03/21 22:54:10;;;;;;;38.50;22.88;;;;;;;4.71;85.28;102875.84;10496554;28;20040;-75
2022/03/21 22:59:11;;;;;;;38.80;24.75;;;;;;;4.79;85.05;102868.84;10460867;28;20029;-75
2022/03/21 23:04:12;;;;;;;35.53;23.88;;;;;;;4.71;84.87;102875.84;10495598;28;20144;-75
2022/03/21 23:09:12;;;;;;;35.25;21.65;;;;;;;4.53;84.19;102882.63;10495566;28;20072;-75
2022/03/21 23:14:13;;;;;;;40.33;25.02;;;;;;;4.41;84.61;102879.69;10463804;28;20068;-75
2022/03/21 23:19:13;;;;;;;40.42;26.50;;;;;;;4.26;84.81;102873.78;10496116;28;20079;-75
2022/03/21 23:24:14;;;;;;;37.97;27.17;;;;;;;4.30;85.03;102878.53;10477373;28;20045;-75
2022/03/21 23:29:18;;;;;;;41.35;26.08;;;;;;;4.46;86.05;102887.91;10477527;28;20067;-75
2022/03/21 23:34:18;;;;;;;43.38;26.42;;;;;;;4.58;86.03;102886.59;10495028;28;20044;-75